sensor_id;sensor_type;location;lat;lon;timestamp;P1;durP1;ratioP1;P2;durP2;ratioP2
18296;SDS011;18066;52.106;5.534;2024-03-17T03:40:01;15.17;;;4.93;;
18296;SDS011;18066;52.106;5.534;2024-03-17T03:43:30;14.40;;;5.33;;
18296;SDS011;18066;52.106;5.534;2024-03-17T03:48:24;8.70;;;4.77;;
18296;SDS011;18066;52.106;5.534;2024-03-17T04:15:40;8.67;;;5.17;;
18296;SDS011;18066;52.106;5.534;2024-03-17T04:22:25;14.90;;;5.83;;
18296;SDS011;18066;52.106;5.534;2024-03-17T04:25:40;7.73;;;4.80;;
18296;SDS011;18066;52.106;5.534;2024-03-17T04:28:59;10.00;;;4.97;;
18296;SDS011;18066;52.106;5.534;2024-03-17T04:35:58;10.87;;;5.90;;
18296;SDS011;18066;52.106;5.534;2024-03-17T04:42:57;10.07;;;6.37;;
18296;SDS011;18066;52.106;5.534;2024-03-17T04:49:43;9.97;;;5.67;;
18296;SDS011;18066;52.106;5.534;2024-03-17T04:52:39;9.83;;;6.10;;
18296;SDS011;18066;52.106;5.534;2024-03-17T04:59:17;14.77;;;6.20;;
18296;SDS011;18066;52.106;5.534;2024-03-17T05:33:07;14.07;;;7.53;;
18296;SDS011;18066;52.106;5.534;2024-03-17T06:57:57;11.67;;;6.90;;
18296;SDS011;18066;52.106;5.534;2024-03-17T07:00:34;11.60;;;6.60;;
18296;SDS011;18066;52.106;5.534;2024-03-17T07:03:10;12.43;;;7.03;;
18296;SDS011;18066;52.106;5.534;2024-03-17T07:05:58;11.10;;;6.90;;
18296;SDS011;18066;52.106;5.534;2024-03-17T07:08:40;15.70;;;6.47;;
18296;SDS011;18066;52.106;5.534;2024-03-17T07:11:07;10.97;;;6.53;;
18296;SDS011;18066;52.106;5.534;2024-03-17T07:13:35;9.47;;;6.87;;
18296;SDS011;18066;52.106;5.534;2024-03-17T07:16:04;11.83;;;6.90;;
18296;SDS011;18066;52.106;5.534;2024-03-17T08:37:55;10.07;;;6.53;;
18296;SDS011;18066;52.106;5.534;2024-03-17T08:40:27;9.63;;;6.87;;
18296;SDS011;18066;52.106;5.534;2024-03-17T08:42:57;12.97;;;6.50;;
18296;SDS011;18066;52.106;5.534;2024-03-17T08:45:36;12.60;;;5.97;;
18296;SDS011;18066;52.106;5.534;2024-03-17T08:48:40;7.90;;;5.50;;
18296;SDS011;18066;52.106;5.534;2024-03-17T08:51:11;18.27;;;7.57;;
18296;SDS011;18066;52.106;5.534;2024-03-17T08:53:39;11.10;;;7.03;;
18296;SDS011;18066;52.106;5.534;2024-03-17T08:56:09;9.77;;;6.50;;
18296;SDS011;18066;52.106;5.534;2024-03-17T08:58:37;9.60;;;5.70;;
18296;SDS011;18066;52.106;5.534;2024-03-17T09:04:02;11.97;;;8.40;;
18296;SDS011;18066;52.106;5.534;2024-03-17T09:07:03;6.97;;;5.70;;
18296;SDS011;18066;52.106;5.534;2024-03-17T09:12:55;8.15;;;6.25;;
18296;SDS011;18066;52.106;5.534;2024-03-17T09:15:30;11.20;;;5.50;;
18296;SDS011;18066;52.106;5.534;2024-03-17T09:18:00;8.37;;;5.33;;
18296;SDS011;18066;52.106;5.534;2024-03-17T09:20:37;10.83;;;5.30;;
18296;SDS011;18066;52.106;5.534;2024-03-17T09:23:08;10.20;;;5.50;;
18296;SDS011;18066;52.106;5.534;2024-03-17T09:25:36;7.00;;;5.13;;
18296;SDS011;18066;52.106;5.534;2024-03-17T09:28:04;10.50;;;5.80;;
18296;SDS011;18066;52.106;5.534;2024-03-17T09:30:33;8.50;;;5.13;;
18296;SDS011;18066;52.106;5.534;2024-03-17T09:33:20;7.67;;;5.37;;
18296;SDS011;18066;52.106;5.534;2024-03-17T09:35:58;8.17;;;5.20;;
18296;SDS011;18066;52.106;5.534;2024-03-17T09:41:36;9.53;;;5.33;;
18296;SDS011;18066;52.106;5.534;2024-03-17T09:44:13;7.00;;;5.00;;
18296;SDS011;18066;52.106;5.534;2024-03-17T09:46:49;9.93;;;5.00;;
18296;SDS011;18066;52.106;5.534;2024-03-17T09:49:38;7.47;;;5.37;;
18296;SDS011;18066;52.106;5.534;2024-03-17T09:52:05;7.73;;;5.37;;
18296;SDS011;18066;52.106;5.534;2024-03-17T09:54:40;9.67;;;5.27;;
18296;SDS011;18066;52.106;5.534;2024-03-17T09:57:12;8.30;;;5.20;;
18296;SDS011;18066;52.106;5.534;2024-03-17T09:59:42;10.03;;;5.23;;
18296;SDS011;18066;52.106;5.534;2024-03-17T10:02:11;16.50;;;6.30;;
18296;SDS011;18066;52.106;5.534;2024-03-17T10:04:45;7.97;;;5.50;;
18296;SDS011;18066;52.106;5.534;2024-03-17T10:07:12;6.73;;;5.30;;
18296;SDS011;18066;52.106;5.534;2024-03-17T10:09:41;7.80;;;5.90;;
18296;SDS011;18066;52.106;5.534;2024-03-17T10:14:59;9.65;;;5.82;;
18296;SDS011;18066;52.106;5.534;2024-03-17T10:17:29;7.07;;;5.32;;
18296;SDS011;18066;52.106;5.534;2024-03-17T10:22:58;6.47;;;5.00;;
18296;SDS011;18066;52.106;5.534;2024-03-17T10:25:29;8.30;;;4.88;;
18296;SDS011;18066;52.106;5.534;2024-03-17T10:27:58;8.57;;;5.07;;
18296;SDS011;18066;52.106;5.534;2024-03-17T10:30:27;8.20;;;5.13;;
18296;SDS011;18066;52.106;5.534;2024-03-17T10:32:57;6.93;;;4.97;;
18296;SDS011;18066;52.106;5.534;2024-03-17T10:35:29;7.97;;;4.88;;
18296;SDS011;18066;52.106;5.534;2024-03-17T10:38:00;13.30;;;5.32;;
18296;SDS011;18066;52.106;5.534;2024-03-17T10:40:28;6.75;;;4.43;;
18296;SDS011;18066;52.106;5.534;2024-03-17T10:42:56;7.93;;;4.40;;
18296;SDS011;18066;52.106;5.534;2024-03-17T10:45:25;8.15;;;5.28;;
18296;SDS011;18066;52.106;5.534;2024-03-17T10:47:55;6.05;;;4.95;;
18296;SDS011;18066;52.106;5.534;2024-03-17T10:50:25;8.23;;;5.22;;
18296;SDS011;18066;52.106;5.534;2024-03-17T10:52:56;10.70;;;5.03;;
18296;SDS011;18066;52.106;5.534;2024-03-17T10:55:36;8.45;;;5.35;;
18296;SDS011;18066;52.106;5.534;2024-03-17T10:58:14;7.47;;;5.20;;
18296;SDS011;18066;52.106;5.534;2024-03-17T11:00:50;8.02;;;5.43;;
18296;SDS011;18066;52.106;5.534;2024-03-17T11:03:18;8.82;;;5.10;;
18296;SDS011;18066;52.106;5.534;2024-03-17T11:05:46;8.43;;;5.65;;
18296;SDS011;18066;52.106;5.534;2024-03-17T11:08:15;10.32;;;5.28;;
18296;SDS011;18066;52.106;5.534;2024-03-17T11:10:49;7.60;;;5.25;;
18296;SDS011;18066;52.106;5.534;2024-03-17T11:13:27;7.82;;;4.78;;
18296;SDS011;18066;52.106;5.534;2024-03-17T11:15:56;5.63;;;4.40;;
18296;SDS011;18066;52.106;5.534;2024-03-17T11:18:36;6.88;;;4.72;;
18296;SDS011;18066;52.106;5.534;2024-03-17T11:21:03;9.85;;;4.93;;
18296;SDS011;18066;52.106;5.534;2024-03-17T11:24:00;7.93;;;5.13;;
18296;SDS011;18066;52.106;5.534;2024-03-17T11:26:31;7.55;;;5.10;;
18296;SDS011;18066;52.106;5.534;2024-03-17T11:29:01;5.82;;;4.43;;
18296;SDS011;18066;52.106;5.534;2024-03-17T11:31:39;7.78;;;4.70;;
18296;SDS011;18066;52.106;5.534;2024-03-17T11:36:56;9.57;;;4.82;;
18296;SDS011;18066;52.106;5.534;2024-03-17T11:39:54;7.60;;;4.78;;
18296;SDS011;18066;52.106;5.534;2024-03-17T11:52:45;6.47;;;5.05;;
18296;SDS011;18066;52.106;5.534;2024-03-17T12:57:21;8.02;;;5.03;;
18296;SDS011;18066;52.106;5.534;2024-03-17T13:03:05;9.43;;;5.63;;
18296;SDS011;18066;52.106;5.534;2024-03-17T13:06:04;7.55;;;4.85;;
18296;SDS011;18066;52.106;5.534;2024-03-17T13:11:44;10.48;;;6.22;;
18296;SDS011;18066;52.106;5.534;2024-03-17T13:14:12;7.68;;;5.78;;
18296;SDS011;18066;52.106;5.534;2024-03-17T13:20:15;9.52;;;5.63;;
18296;SDS011;18066;52.106;5.534;2024-03-17T13:42:33;8.18;;;5.72;;
18296;SDS011;18066;52.106;5.534;2024-03-17T14:25:42;9.32;;;6.18;;
18296;SDS011;18066;52.106;5.534;2024-03-17T17:55:02;12.30;;;7.13;;
18296;SDS011;18066;52.106;5.534;2024-03-17T18:01:07;11.60;;;7.13;;
18296;SDS011;18066;52.106;5.534;2024-03-17T18:04:04;14.10;;;7.80;;
18296;SDS011;18066;52.106;5.534;2024-03-17T18:32:26;22.97;;;13.93;;
18296;SDS011;18066;52.106;5.534;2024-03-17T18:35:13;38.97;;;19.13;;
18296;SDS011;18066;52.106;5.534;2024-03-17T18:38:12;26.83;;;14.57;;
18296;SDS011;18066;52.106;5.534;2024-03-17T18:41:15;19.70;;;11.67;;
18296;SDS011;18066;52.106;5.534;2024-03-17T18:47:52;20.77;;;10.67;;
18296;SDS011;18066;52.106;5.534;2024-03-17T18:53:51;28.10;;;15.00;;
18296;SDS011;18066;52.106;5.534;2024-03-17T18:56:44;22.97;;;13.27;;
18296;SDS011;18066;52.106;5.534;2024-03-17T21:46:39;13.53;;;9.23;;
18296;SDS011;18066;52.106;5.534;2024-03-17T22:00:12;13.93;;;8.97;;
18296;SDS011;18066;52.106;5.534;2024-03-17T22:03:06;15.03;;;9.43;;
18296;SDS011;18066;52.106;5.534;2024-03-17T22:25:59;16.60;;;10.20;;
18296;SDS011;18066;52.106;5.534;2024-03-17T22:28:40;12.70;;;9.40;;
18296;SDS011;18066;52.106;5.534;2024-03-17T22:31:34;14.23;;;9.37;;
18296;SDS011;18066;52.106;5.534;2024-03-17T22:34:34;13.23;;;8.53;;
18296;SDS011;18066;52.106;5.534;2024-03-17T22:37:59;15.47;;;8.97;;
18296;SDS011;18066;52.106;5.534;2024-03-17T22:40:37;16.73;;;9.47;;
18296;SDS011;18066;52.106;5.534;2024-03-17T22:43:50;13.30;;;9.60;;
18296;SDS011;18066;52.106;5.534;2024-03-17T22:47:12;14.97;;;9.60;;
18296;SDS011;18066;52.106;5.534;2024-03-17T22:53:38;15.10;;;9.67;;
18296;SDS011;18066;52.106;5.534;2024-03-17T22:56:45;15.73;;;10.00;;
18296;SDS011;18066;52.106;5.534;2024-03-17T23:00:49;12.23;;;9.63;;
18296;SDS011;18066;52.106;5.534;2024-03-17T23:05:57;14.13;;;9.60;;
18296;SDS011;18066;52.106;5.534;2024-03-17T23:15:44;13.37;;;9.83;;
18296;SDS011;18066;52.106;5.534;2024-03-17T23:18:37;12.37;;;9.40;;
18296;SDS011;18066;52.106;5.534;2024-03-17T23:21:47;15.33;;;10.27;;
18296;SDS011;18066;52.106;5.534;2024-03-17T23:24:23;11.07;;;8.80;;
18296;SDS011;18066;52.106;5.534;2024-03-17T23:34:23;12.80;;;9.30;;
18296;SDS011;18066;52.106;5.534;2024-03-17T23:46:33;12.53;;;8.97;;
18296;SDS011;18066;52.106;5.534;2024-03-17T23:51:15;11.47;;;8.43;;
18296;SDS011;18066;52.106;5.534;2024-03-17T23:54:11;11.10;;;7.87;;
18296;SDS011;18066;52.106;5.534;2024-03-17T23:57:08;13.37;;;7.80;;
18296;SDS011;18066;52.106;5.534;2024-03-17T23:59:57;9.27;;;7.67;;
